Time;durP1;ratioP1;P1;durP2;ratioP2;P2;SDS_P1;SDS_P2;PMS_P1;PMS_P2;Temp;Humidity;BMP_temperature;BMP_pressure;BME280_temperature;BME280_humidity;BME280_pressure;Samples;Min_cycle;Max_cycle;Signal;HPM_P1;HPM_P2
2022/03/14 00:00:20;;;;;;;3.58;1.60;;;;;;;9.57;100.00;100639.88;5095877;28;20031;-63
2022/03/14 00:02:46;;;;;;;3.78;1.50;;;;;;;9.57;100.00;100645.13;5095764;28;20027;-63
2022/03/14 00:05:15;;;;;;;3.05;1.83;;;;;;;9.55;100.00;100653.09;5095456;28;20077;-63
2022/03/14 00:07:44;;;;;;;2.22;1.38;;;;;;;9.53;100.00;100648.84;5095413;28;20531;-63
2022/03/14 00:10:13;;;;;;;3.03;1.80;;;;;;;9.57;100.00;100653.00;5089832;28;20062;-63
2022/03/14 00:12:39;;;;;;;2.03;1.20;;;;;;;9.54;100.00;100651.38;5081320;28;20027;-63
2022/03/14 00:15:08;;;;;;;2.88;1.40;;;;;;;9.52;100.00;100658.47;5087126;28;20032;-63
2022/03/14 00:17:34;;;;;;;2.53;1.48;;;;;;;9.52;100.00;100662.84;5082016;28;20027;-63
2022/03/14 00:20:01;;;;;;;3.13;1.80;;;;;;;9.49;100.00;100663.00;5082499;28;20523;-64
2022/03/14 00:22:26;;;;;;;2.08;1.20;;;;;;;9.50;100.00;100665.53;5092854;28;20024;-63
2022/03/14 00:24:53;;;;;;;2.45;1.67;;;;;;;9.54;100.00;100674.13;5094979;28;20394;-63
2022/03/14 00:27:19;;;;;;;4.95;1.63;;;;;;;9.51;100.00;100669.88;5094909;28;20042;-63
2022/03/14 00:29:44;;;;;;;2.75;1.80;;;;;;;9.52;100.00;100681.22;5095058;28;20016;-63
2022/03/14 00:32:10;;;;;;;2.42;1.33;;;;;;;9.49;100.00;100678.72;5095165;28;20032;-63
2022/03/14 00:34:35;;;;;;;2.30;1.45;;;;;;;9.48;100.00;100684.88;5095257;28;20077;-63
2022/03/14 00:37:01;;;;;;;3.00;1.85;;;;;;;9.44;100.00;100681.53;5094823;28;20768;-64
2022/03/14 00:39:26;;;;;;;2.88;1.45;;;;;;;9.43;100.00;100689.47;5094725;28;20506;-64
2022/03/14 00:41:51;;;;;;;2.47;1.55;;;;;;;9.40;100.00;100684.31;5094912;28;20114;-64
2022/03/14 00:44:18;;;;;;;2.88;1.75;;;;;;;9.39;100.00;100687.88;5094311;28;20041;-63
2022/03/14 00:46:44;;;;;;;2.97;1.60;;;;;;;9.36;100.00;100686.22;5094775;28;20056;-63
2022/03/14 00:49:09;;;;;;;3.40;1.90;;;;;;;9.36;100.00;100691.47;5094876;28;20028;-64
2022/03/14 00:51:35;;;;;;;4.43;1.73;;;;;;;9.34;100.00;100700.31;5094505;28;20035;-63
2022/03/14 00:54:04;;;;;;;3.08;1.60;;;;;;;9.32;100.00;100702.16;5094704;28;20027;-64
2022/03/14 00:56:30;;;;;;;2.25;1.42;;;;;;;9.34;100.00;100710.81;5110181;28;20551;-63
2022/03/14 00:58:58;;;;;;;3.15;1.70;;;;;;;9.32;100.00;100715.25;5093789;28;20020;-63
2022/03/14 01:01:24;;;;;;;4.15;1.95;;;;;;;9.29;100.00;100728.50;5093720;28;20097;-63
2022/03/14 01:03:49;;;;;;;3.35;1.55;;;;;;;9.27;100.00;100719.81;5083203;28;20466;-63
2022/03/14 01:06:15;;;;;;;2.60;1.45;;;;;;;9.21;100.00;100727.03;5094380;28;20158;-63
2022/03/14 01:08:40;;;;;;;3.22;1.90;;;;;;;9.15;100.00;100727.28;5094094;28;20016;-63
2022/03/14 01:11:06;;;;;;;4.25;1.92;;;;;;;9.08;100.00;100736.28;5094785;28;20038;-63
2022/03/14 01:13:31;;;;;;;6.50;1.48;;;;;;;9.08;100.00;100733.66;5094168;28;20023;-64
2022/03/14 01:15:58;;;;;;;4.53;1.83;;;;;;;9.10;100.00;100739.69;5094277;28;20035;-63
2022/03/14 01:18:23;;;;;;;3.13;1.67;;;;;;;9.14;100.00;100736.03;5093934;28;20024;-64
2022/03/14 01:20:49;;;;;;;3.05;1.60;;;;;;;9.14;100.00;100743.91;5094299;28;20020;-64
2022/03/14 01:23:14;;;;;;;5.70;2.00;;;;;;;9.15;100.00;100743.00;5094246;28;20024;-63
2022/03/14 01:25:42;;;;;;;2.90;1.75;;;;;;;9.18;100.00;100742.88;5093786;28;20454;-63
2022/03/14 01:28:09;;;;;;;2.65;1.42;;;;;;;9.21;100.00;100742.75;5109465;28;20101;-64
2022/03/14 01:30:35;;;;;;;2.45;1.48;;;;;;;9.26;100.00;100733.88;5093788;28;20020;-63
2022/03/14 01:33:01;;;;;;;2.90;1.67;;;;;;;9.26;100.00;100733.88;5093991;28;20027;-63
2022/03/14 01:35:26;;;;;;;3.15;1.85;;;;;;;9.21;100.00;100740.13;5109323;28;20440;-63
2022/03/14 01:37:52;;;;;;;5.38;1.88;;;;;;;9.20;100.00;100740.19;5094123;28;20389;-63
2022/03/14 01:40:18;;;;;;;3.35;1.95;;;;;;;9.21;100.00;100742.75;5093566;28;20462;-64
2022/03/14 01:42:44;;;;;;;3.47;1.45;;;;;;;9.20;100.00;100756.78;5093696;28;20032;-64
2022/03/14 01:45:10;;;;;;;3.22;1.85;;;;;;;9.19;100.00;100741.94;5093897;28;20027;-63
2022/03/14 01:47:37;;;;;;;2.88;1.67;;;;;;;9.16;100.00;100744.69;5109044;28;20469;-64
2022/03/14 01:50:05;;;;;;;4.25;1.98;;;;;;;9.17;100.00;100759.53;5077988;28;20245;-64
2022/03/14 01:52:31;;;;;;;2.80;1.50;;;;;;;9.18;100.00;100769.09;5072809;28;20028;-63
2022/03/14 01:54:56;;;;;;;7.20;1.92;;;;;;;9.21;100.00;100766.34;5072823;28;20077;-63
2022/03/14 01:57:22;;;;;;;2.95;1.55;;;;;;;9.24;100.00;100768.00;5054919;28;20131;-63
2022/03/14 01:59:47;;;;;;;3.38;1.60;;;;;;;9.24;100.00;100768.00;5072963;28;20055;-63
2022/03/14 02:02:13;;;;;;;2.97;1.52;;;;;;;9.24;100.00;100773.25;5073115;28;20031;-63
2022/03/14 02:04:38;;;;;;;3.60;2.05;;;;;;;9.25;100.00;100769.72;5073065;28;20036;-63
2022/03/14 02:07:04;;;;;;;3.45;2.03;;;;;;;9.31;100.00;100769.47;5072654;28;20020;-63
2022/03/14 02:09:29;;;;;;;4.07;1.95;;;;;;;9.31;100.00;100779.09;5055020;28;20027;-63
2022/03/14 02:11:55;;;;;;;2.72;1.88;;;;;;;9.33;100.00;100785.16;5073378;28;20103;-63
2022/03/14 02:14:21;;;;;;;2.97;1.55;;;;;;;9.30;100.00;100793.13;5072658;28;20403;-63
2022/03/14 02:16:46;;;;;;;6.22;2.53;;;;;;;9.26;100.00;100791.56;5073309;28;20055;-63
2022/03/14 02:19:11;;;;;;;4.90;1.95;;;;;;;9.21;100.00;100803.06;5072873;28;20415;-63
2022/03/14 02:21:38;;;;;;;3.88;1.90;;;;;;;8.83;100.00;100756.47;5072817;28;20025;-63
2022/03/14 02:24:04;;;;;;;3.67;2.50;;;;;;;8.65;100.00;100738.81;5072703;28;20105;-63
2022/03/14 02:26:29;;;;;;;4.15;2.60;;;;;;;8.94;100.00;100814.59;5072586;28;20475;-63
2022/03/14 02:28:55;;;;;;;5.68;2.28;;;;;;;8.86;100.00;100814.00;5073130;28;20035;-63
2022/03/14 02:31:20;;;;;;;4.70;2.28;;;;;;;8.78;100.00;100823.91;5072648;28;20385;-63
2022/03/14 02:33:45;;;;;;;4.85;2.60;;;;;;;8.69;100.00;100826.84;5072498;28;20473;-63
2022/03/14 02:36:11;;;;;;;4.65;2.03;;;;;;;8.65;100.00;100833.13;5072442;28;20106;-63
2022/03/14 02:38:36;;;;;;;3.83;2.08;;;;;;;8.63;100.00;100837.53;5072494;28;20025;-63
2022/03/14 02:41:02;;;;;;;4.45;2.45;;;;;;;8.55;100.00;100829.94;5066459;28;20151;-63
2022/03/14 02:43:28;;;;;;;3.85;1.73;;;;;;;8.50;100.00;100841.50;5065080;28;20021;-63
2022/03/14 02:45:54;;;;;;;4.22;1.70;;;;;;;8.45;100.00;100838.19;5048368;28;20021;-63
2022/03/14 02:48:20;;;;;;;2.90;1.67;;;;;;;8.39;100.00;100833.16;5070920;28;20071;-64
2022/03/14 02:50:48;;;;;;;3.53;2.15;;;;;;;8.44;100.00;100847.81;5068896;28;20032;-64
2022/03/14 02:53:14;;;;;;;5.10;1.70;;;;;;;8.44;100.00;100847.81;5067148;28;20025;-63
2022/03/14 02:55:40;;;;;;;2.67;1.60;;;;;;;8.46;100.00;100845.13;5057624;28;20032;-63
2022/03/14 02:58:06;;;;;;;4.78;1.63;;;;;;;8.48;100.00;100851.19;5065232;28;20419;-63
2022/03/14 03:00:32;;;;;;;3.33;1.77;;;;;;;8.51;100.00;100858.94;5068655;28;20032;-64
2022/03/14 03:02:58;;;;;;;2.90;1.80;;;;;;;8.53;100.00;100865.81;5064783;28;20024;-64
2022/03/14 03:05:23;;;;;;;3.13;2.20;;;;;;;8.52;100.00;100871.09;5067055;28;20046;-63
2022/03/14 03:07:49;;;;;;;2.70;1.60;;;;;;;8.53;100.00;100871.06;5066908;28;20458;-63
2022/03/14 03:10:22;;;;;;;2.83;1.77;;;;;;;8.50;100.00;100871.16;5063909;28;20021;-63
2022/03/14 03:12:47;;;;;;;2.80;1.77;;;;;;;8.46;100.00;100866.06;5080043;28;20020;-63
2022/03/14 03:15:17;;;;;;;2.58;1.55;;;;;;;8.49;100.00;100886.91;5096414;28;20081;-63
2022/03/14 03:17:43;;;;;;;3.58;1.90;;;;;;;8.49;100.00;100886.91;5096717;28;20418;-63
2022/03/14 03:20:09;;;;;;;5.15;2.50;;;;;;;8.47;100.00;100902.69;5096317;28;20115;-63
2022/03/14 03:22:35;;;;;;;3.70;2.30;;;;;;;8.46;100.00;100902.75;5096108;28;20039;-63
2022/03/14 03:25:00;;;;;;;3.65;2.45;;;;;;;8.48;100.00;100916.66;5096362;28;20359;-63
2022/03/14 03:27:26;;;;;;;4.07;2.08;;;;;;;8.46;100.00;100923.69;5096642;28;20083;-63
2022/03/14 03:29:51;;;;;;;4.93;2.80;;;;;;;8.43;100.00;100923.78;5078194;28;20032;-63
2022/03/14 03:32:16;;;;;;;3.40;2.15;;;;;;;8.43;100.00;100923.78;5095765;28;20073;-63
2022/03/14 03:34:42;;;;;;;4.07;2.42;;;;;;;8.42;100.00;100932.53;5096290;28;20036;-63
2022/03/14 03:37:07;;;;;;;6.05;2.00;;;;;;;8.42;100.00;100932.53;5096196;28;20016;-63
2022/03/14 03:39:33;;;;;;;4.85;2.17;;;;;;;8.42;100.00;100937.78;5095917;28;20048;-63
2022/03/14 03:41:58;;;;;;;3.53;2.10;;;;;;;8.37;100.00;100934.47;5096107;28;20035;-62
2022/03/14 03:44:23;;;;;;;4.57;2.70;;;;;;;8.37;100.00;100944.94;5095781;28;20032;-63
2022/03/14 03:46:49;;;;;;;4.57;2.58;;;;;;;8.36;100.00;100951.94;5096033;28;20077;-63
2022/03/14 03:49:14;;;;;;;4.63;2.65;;;;;;;8.34;100.00;100950.28;5095920;28;20039;-62
2022/03/14 03:51:40;;;;;;;4.50;2.50;;;;;;;8.31;100.00;100958.25;5095620;28;20462;-62
2022/03/14 03:54:05;;;;;;;5.30;2.85;;;;;;;8.29;100.00;100962.66;5095938;28;20028;-63
2022/03/14 03:56:32;;;;;;;4.80;2.80;;;;;;;8.23;100.00;100972.38;5095941;28;20035;-63
2022/03/14 03:58:58;;;;;;;4.75;3.13;;;;;;;8.24;100.00;100973.25;5095759;28;20024;-63
2022/03/14 04:01:23;;;;;;;4.63;3.13;;;;;;;8.19;100.00;100977.75;5095663;28;20106;-63
2022/03/14 04:03:54;;;;;;;8.15;3.53;;;;;;;8.19;100.00;100989.09;5095701;28;20020;-63
2022/03/14 04:06:22;;;;;;;5.57;4.07;;;;;;;8.23;100.00;100989.84;5077634;28;20142;-63
2022/03/14 04:08:48;;;;;;;5.95;3.22;;;;;;;8.23;100.00;100988.09;5095305;28;20107;-62
2022/03/14 04:11:14;;;;;;;5.07;3.45;;;;;;;8.21;100.00;100994.28;5095602;28;20471;-62
2022/03/14 04:13:39;;;;;;;6.93;3.40;;;;;;;8.26;100.00;101001.97;5095215;28;20035;-63
2022/03/14 04:16:05;;;;;;;6.75;3.58;;;;;;;8.20;100.00;101006.53;5094763;28;20433;-63
2022/03/14 04:18:30;;;;;;;5.13;3.60;;;;;;;8.16;100.00;101004.91;5095115;28;20534;-62
2022/03/14 04:20:57;;;;;;;6.97;4.65;;;;;;;8.14;100.00;101017.16;5094455;28;20028;-62
2022/03/14 04:23:23;;;;;;;7.97;3.92;;;;;;;8.15;100.00;101025.88;5095278;28;20028;-64
2022/03/14 04:25:48;;;;;;;7.85;3.90;;;;;;;8.16;100.00;101036.31;5077098;28;20028;-62
2022/03/14 04:28:15;;;;;;;5.72;4.13;;;;;;;8.13;100.00;101032.91;5094737;28;20495;-62
2022/03/14 04:30:41;;;;;;;9.02;4.60;;;;;;;8.14;100.00;101030.25;5095189;28;20035;-62
2022/03/14 04:33:08;;;;;;;5.65;4.13;;;;;;;8.14;100.00;101035.47;5095172;28;20028;-62
2022/03/14 04:35:35;;;;;;;6.72;3.92;;;;;;;8.14;100.00;101048.56;5094839;28;20059;-62
2022/03/14 04:38:00;;;;;;;6.18;4.68;;;;;;;8.14;100.00;101043.31;5094795;28;20031;-63
2022/03/14 04:40:26;;;;;;;10.13;5.13;;;;;;;8.14;100.00;101048.56;5094904;28;20059;-63
2022/03/14 04:42:52;;;;;;;9.23;4.90;;;;;;;8.18;100.00;101054.56;5095033;28;20118;-63
2022/03/14 04:45:17;;;;;;;8.43;4.85;;;;;;;8.19;100.00;101057.16;5094755;28;20024;-63
2022/03/14 04:47:42;;;;;;;6.85;4.18;;;;;;;8.20;100.00;101058.88;5094222;28;20039;-63
2022/03/14 04:50:08;;;;;;;8.85;4.60;;;;;;;8.19;100.00;101061.53;5094832;28;20518;-62
2022/03/14 04:52:34;;;;;;;6.50;3.85;;;;;;;8.19;100.00;101066.75;5094755;28;20028;-62
2022/03/14 04:54:59;;;;;;;13.85;5.25;;;;;;;8.21;100.00;101071.03;5094670;28;20016;-62
2022/03/14 04:57:25;;;;;;;8.57;5.20;;;;;;;8.23;100.00;101069.25;5094738;28;20363;-63
2022/03/14 04:59:50;;;;;;;6.00;4.68;;;;;;;8.26;100.00;101067.44;5094039;28;20408;-62
2022/03/14 05:02:25;;;;;;;11.07;5.10;;;;;;;8.25;100.00;101081.44;5094520;28;20076;-62
2022/03/14 05:04:51;;;;;;;11.52;4.43;;;;;;;8.21;100.00;101084.13;5094476;28;20032;-62
2022/03/14 05:07:17;;;;;;;13.38;4.55;;;;;;;8.24;100.00;101093.69;5094467;28;20382;-62
2022/03/14 05:09:42;;;;;;;7.30;4.53;;;;;;;8.24;100.00;101088.44;5094102;28;20093;-62
2022/03/14 05:12:08;;;;;;;9.70;5.47;;;;;;;8.19;100.00;101083.31;5094393;28;20035;-62
2022/03/14 05:14:34;;;;;;;5.65;4.03;;;;;;;8.26;100.00;101102.31;5094089;28;20390;-63
2022/03/14 05:17:00;;;;;;;6.30;4.57;;;;;;;8.25;100.00;101102.38;5094217;28;20058;-62
2022/03/14 05:19:25;;;;;;;9.00;5.45;;;;;;;8.27;100.00;101116.28;5094158;28;20059;-62
2022/03/14 05:21:50;;;;;;;11.07;5.32;;;;;;;8.30;100.00;101121.47;5094225;28;20467;-62
2022/03/14 05:24:16;;;;;;;10.82;5.60;;;;;;;8.30;100.00;101124.06;5093909;28;20131;-62
2022/03/14 05:26:41;;;;;;;6.88;4.90;;;;;;;8.30;100.00;101122.31;5094273;28;20020;-62
2022/03/14 05:29:08;;;;;;;7.57;5.03;;;;;;;8.32;100.00;101124.88;5093935;28;20020;-61
2022/03/14 05:31:34;;;;;;;11.43;5.50;;;;;;;8.32;100.00;101125.75;5092650;28;20386;-62
2022/03/14 05:34:00;;;;;;;7.30;5.35;;;;;;;8.33;100.00;101127.47;5094235;28;20032;-62
2022/03/14 05:36:25;;;;;;;7.93;4.95;;;;;;;8.34;100.00;101128.31;5093830;28;20486;-63
2022/03/14 05:38:50;;;;;;;14.80;5.35;;;;;;;8.34;100.00;101138.81;5093471;28;20386;-62
2022/03/14 05:41:16;;;;;;;9.98;5.95;;;;;;;8.35;100.00;101137.91;5093809;28;20032;-62
2022/03/14 05:43:41;;;;;;;9.50;5.50;;;;;;;8.33;100.00;101144.94;5093822;28;20039;-62
2022/03/14 05:46:07;;;;;;;9.50;5.60;;;;;;;8.30;100.00;101151.13;5093900;28;20032;-62
2022/03/14 05:48:35;;;;;;;12.57;6.55;;;;;;;8.30;100.00;101153.72;5093518;28;20024;-62
2022/03/14 05:51:02;;;;;;;8.73;5.50;;;;;;;8.28;100.00;101152.03;5108771;28;20024;-62
2022/03/14 05:53:28;;;;;;;8.32;5.47;;;;;;;8.13;100.00;101133.25;5093501;28;20024;-62
2022/03/14 05:55:53;;;;;;;10.40;5.93;;;;;;;8.28;100.00;101159.88;5075447;28;20043;-62
2022/03/14 05:58:19;;;;;;;10.15;5.93;;;;;;;8.26;100.00;101161.69;5093111;28;20016;-63
2022/03/14 06:00:44;;;;;;;12.68;5.97;;;;;;;8.30;100.00;101168.59;5087006;28;20020;-62
2022/03/14 06:03:09;;;;;;;11.98;7.95;;;;;;;8.29;100.00;101166.84;5068142;28;20103;-62
2022/03/14 06:05:35;;;;;;;10.80;6.43;;;;;;;8.29;100.00;101170.34;5073893;28;20031;-62
2022/03/14 06:08:00;;;;;;;16.13;5.57;;;;;;;8.30;100.00;101171.19;5085868;28;20965;-63
2022/03/14 06:10:25;;;;;;;10.90;5.55;;;;;;;8.29;100.00;101169.47;5090458;28;20039;-62
2022/03/14 06:12:51;;;;;;;9.48;5.28;;;;;;;8.27;100.00;101173.88;5089810;28;20032;-62
2022/03/14 06:15:16;;;;;;;10.68;5.82;;;;;;;8.28;100.00;101175.59;5092846;28;20479;-62
2022/03/14 06:17:42;;;;;;;10.82;4.93;;;;;;;8.23;100.00;101175.72;5088160;28;20036;-62
2022/03/14 06:20:12;;;;;;;10.20;5.15;;;;;;;8.22;100.00;101172.25;5090224;28;20032;-62
2022/03/14 06:22:42;;;;;;;12.43;5.22;;;;;;;8.18;100.00;101175.84;5091279;28;20382;-63
2022/03/14 06:25:08;;;;;;;12.25;5.68;;;;;;;8.16;100.00;101168.94;5087704;28;20112;-62
2022/03/14 06:27:33;;;;;;;10.85;5.13;;;;;;;8.14;100.00;101176.81;5074736;28;20474;-62
2022/03/14 06:29:59;;;;;;;6.72;4.88;;;;;;;8.12;100.00;101181.25;5092702;28;20035;-62
2022/03/14 06:32:24;;;;;;;9.60;4.40;;;;;;;8.12;100.00;101181.25;5092970;28;20546;-62
2022/03/14 06:34:49;;;;;;;10.07;5.40;;;;;;;8.07;100.00;101192.75;5091522;28;20042;-62
2022/03/14 06:37:15;;;;;;;9.20;4.90;;;;;;;8.09;100.00;101197.03;5089283;28;20031;-63
2022/03/14 06:39:40;;;;;;;15.43;4.97;;;;;;;8.15;100.00;101206.47;5090135;28;20531;-63
2022/03/14 06:42:09;;;;;;;9.93;4.47;;;;;;;8.25;100.00;101217.56;5089872;28;20053;-63
2022/03/14 06:44:38;;;;;;;7.45;3.63;;;;;;;8.29;100.00;101209.59;5111757;28;20837;-63
2022/03/14 06:47:04;;;;;;;8.77;4.85;;;;;;;8.38;100.00;101219.81;5112017;28;20474;-63
2022/03/14 06:49:30;;;;;;;7.78;4.28;;;;;;;8.40;100.00;101222.41;5095110;28;20020;-62
2022/03/14 06:51:55;;;;;;;7.97;4.20;;;;;;;8.44;100.00;101224.03;5095166;28;20032;-63
2022/03/14 06:54:21;;;;;;;5.38;3.65;;;;;;;8.49;100.00;101222.13;5091828;28;20095;-62
2022/03/14 06:56:47;;;;;;;12.43;4.90;;;;;;;8.52;100.00;101222.03;5095769;28;20096;-62
2022/03/14 06:59:13;;;;;;;12.60;5.13;;;;;;;8.54;100.00;101233.34;5092142;28;20035;-62
2022/03/14 07:01:38;;;;;;;10.85;4.78;;;;;;;8.49;100.00;101227.38;5097158;28;20028;-62
2022/03/14 07:04:03;;;;;;;6.95;4.47;;;;;;;8.56;100.00;101237.66;5097067;28;20103;-62
2022/03/14 07:06:29;;;;;;;9.98;4.40;;;;;;;8.55;100.00;101245.56;5096214;28;20055;-62
2022/03/14 07:08:54;;;;;;;8.52;4.30;;;;;;;8.56;100.00;101261.22;5095997;28;20059;-62
2022/03/14 07:11:19;;;;;;;10.90;4.45;;;;;;;8.58;100.00;101248.09;5096434;28;20119;-62
2022/03/14 07:13:45;;;;;;;12.75;4.70;;;;;;;8.61;100.00;101263.72;5096366;28;20138;-61
2022/03/14 07:16:10;;;;;;;9.00;4.32;;;;;;;8.64;100.00;101263.63;5096261;28;20470;-62
2022/03/14 07:18:36;;;;;;;8.82;4.18;;;;;;;8.69;100.00;101274.81;5096232;28;20056;-62
2022/03/14 07:21:01;;;;;;;16.58;4.43;;;;;;;8.72;100.00;101280.84;5096597;28;20051;-62
2022/03/14 07:23:27;;;;;;;10.75;3.83;;;;;;;8.74;100.00;101296.53;5096205;28;20032;-62
2022/03/14 07:25:53;;;;;;;7.47;4.00;;;;;;;8.54;100.00;101252.56;5096286;28;20093;-62
2022/03/14 07:28:18;;;;;;;12.48;4.38;;;;;;;8.65;100.00;101286.31;5095908;28;20042;-62
2022/03/14 07:30:44;;;;;;;9.63;4.68;;;;;;;8.69;100.00;101303.63;5095121;28;20505;-62
2022/03/14 07:33:09;;;;;;;11.98;4.60;;;;;;;8.68;100.00;101301.94;5094479;28;20024;-62
2022/03/14 07:35:35;;;;;;;7.43;4.00;;;;;;;8.67;100.00;101295.84;5095609;28;20100;-62
2022/03/14 07:38:01;;;;;;;13.43;4.35;;;;;;;8.67;100.00;101293.22;5095436;28;20103;-62
2022/03/14 07:40:26;;;;;;;9.75;4.22;;;;;;;8.70;100.00;101298.38;5095695;28;20478;-62
2022/03/14 07:42:54;;;;;;;13.90;4.13;;;;;;;8.74;100.00;101291.28;5094386;28;20084;-62
2022/03/14 07:45:21;;;;;;;11.50;4.38;;;;;;;8.72;100.00;101296.56;5092746;28;20028;-62
2022/03/14 07:47:47;;;;;;;9.50;4.88;;;;;;;8.73;100.00;101294.78;5107831;28;20027;-62
2022/03/14 07:50:15;;;;;;;13.82;4.88;;;;;;;8.74;100.00;101299.16;5094449;28;20032;-62
2022/03/14 07:52:41;;;;;;;9.95;4.80;;;;;;;8.78;100.00;101299.91;5092020;28;20024;-62
2022/03/14 07:55:07;;;;;;;15.40;5.22;;;;;;;8.87;100.00;101308.38;5093188;28;20024;-62
2022/03/14 07:57:37;;;;;;;16.92;5.43;;;;;;;8.96;100.00;101302.84;5094297;28;20020;-62
2022/03/14 08:00:08;;;;;;;8.88;5.70;;;;;;;9.01;100.00;101294.88;5094243;28;20454;-62
2022/03/14 08:02:33;;;;;;;18.48;7.22;;;;;;;9.13;100.00;101316.34;5094033;28;20563;-62
2022/03/14 08:04:59;;;;;;;11.05;5.85;;;;;;;9.21;100.00;101323.97;5094297;28;20024;-63
2022/03/14 08:07:27;;;;;;;22.38;6.45;;;;;;;9.26;100.00;101329.09;5093246;28;20066;-62
2022/03/14 08:09:53;;;;;;;10.68;6.18;;;;;;;9.33;100.00;101325.41;5093093;28;20016;-63
2022/03/14 08:12:20;;;;;;;12.15;5.40;;;;;;;9.49;100.00;101324.00;5093832;28;20131;-62
2022/03/14 08:14:47;;;;;;;7.75;5.30;;;;;;;9.73;100.00;101331.13;5093552;28;20020;-61
2022/03/14 08:17:13;;;;;;;9.70;5.88;;;;;;;9.76;100.00;101333.66;5094394;28;20099;-66
2022/03/14 08:19:38;;;;;;;11.38;5.68;;;;;;;10.02;100.00;101346.78;5073600;28;20107;-62
2022/03/14 08:22:04;;;;;;;9.90;6.57;;;;;;;10.21;100.00;101342.66;5093864;28;20110;-62
2022/03/14 08:24:30;;;;;;;11.15;5.97;;;;;;;10.20;100.00;101335.72;5093732;28;20043;-63
2022/03/14 08:26:55;;;;;;;8.80;5.60;;;;;;;10.31;100.00;101334.50;5093194;28;20031;-62
2022/03/14 08:29:21;;;;;;;9.48;6.75;;;;;;;10.47;100.00;101330.44;5091904;28;20466;-62
2022/03/14 08:31:46;;;;;;;12.90;5.70;;;;;;;10.59;100.00;101336.09;5093817;28;20529;-61
2022/03/14 08:34:13;;;;;;;12.75;7.10;;;;;;;10.47;100.00;101354.94;5093236;28;20031;-61
2022/03/14 08:36:40;;;;;;;12.57;6.28;;;;;;;10.35;100.00;101343.97;5109711;28;20034;-62
2022/03/14 08:39:07;;;;;;;14.05;7.15;;;;;;;10.37;100.00;101364.03;5093676;28;20066;-62
2022/03/14 08:41:34;;;;;;;9.85;6.07;;;;;;;10.38;100.00;101354.38;5075082;28;20024;-63
2022/03/14 08:43:59;;;;;;;9.80;6.45;;;;;;;10.45;100.00;101369.00;5093534;28;20356;-62
2022/03/14 08:46:24;;;;;;;9.73;5.95;;;;;;;10.47;100.00;101364.59;5093832;28;20103;-62
2022/03/14 08:48:50;;;;;;;8.02;5.50;;;;;;;10.42;100.00;101382.25;5094125;28;20462;-61
2022/03/14 08:51:15;;;;;;;7.70;5.45;;;;;;;10.50;100.00;101374.97;5093291;28;20036;-62
2022/03/14 08:53:41;;;;;;;7.38;5.18;;;;;;;10.50;100.00;101372.34;5093517;28;20030;-63
2022/03/14 08:56:07;;;;;;;17.83;6.20;;;;;;;10.42;100.00;101393.63;5092907;28;20044;-62
2022/03/14 08:58:33;;;;;;;9.68;5.43;;;;;;;10.40;100.00;101397.22;5093111;28;20020;-62
2022/03/14 09:01:01;;;;;;;7.63;4.88;;;;;;;10.39;100.00;101403.38;5093294;28;20035;-63
2022/03/14 09:03:27;;;;;;;14.88;6.60;;;;;;;10.35;100.00;101405.25;5093115;28;20032;-63
2022/03/14 09:05:58;;;;;;;13.18;5.10;;;;;;;10.32;100.00;101396.59;5093035;28;20116;-62
2022/03/14 09:08:24;;;;;;;6.85;4.63;;;;;;;10.42;100.00;101395.41;5092602;28;20107;-62
2022/03/14 09:10:50;;;;;;;11.60;6.25;;;;;;;10.44;100.00;101396.22;5093162;28;20580;-62
2022/03/14 09:13:16;;;;;;;18.40;7.07;;;;;;;10.42;100.00;101387.50;5093193;28;20028;-62
2022/03/14 09:15:41;;;;;;;17.23;6.72;;;;;;;10.51;100.00;101400.38;5094034;28;20493;-62
2022/03/14 09:18:07;;;;;;;11.70;5.95;;;;;;;10.64;100.00;101394.63;5093380;28;20028;-62
2022/03/14 09:20:34;;;;;;;9.38;6.55;;;;;;;10.63;100.00;101402.56;5093983;28;20551;-62
2022/03/14 09:23:00;;;;;;;11.05;5.57;;;;;;;10.60;100.00;101415.81;5093036;28;20032;-62
2022/03/14 09:25:25;;;;;;;12.05;5.50;;;;;;;10.70;100.00;101417.22;5092761;28;20508;-62
2022/03/14 09:27:51;;;;;;;10.10;5.20;;;;;;;10.67;100.00;101414.69;5092793;28;20028;-62
2022/03/14 09:30:18;;;;;;;11.13;5.80;;;;;;;10.53;100.00;101422.19;5092900;28;20073;-62
2022/03/14 09:32:44;;;;;;;7.72;5.47;;;;;;;10.43;100.00;101431.28;5093062;28;20035;-62
2022/03/14 09:35:10;;;;;;;8.82;5.60;;;;;;;10.53;100.00;101438.81;5093229;28;20106;-62
2022/03/14 09:37:37;;;;;;;10.32;4.97;;;;;;;10.74;100.00;101442.50;5093057;28;20107;-62
2022/03/14 09:40:07;;;;;;;11.82;5.95;;;;;;;10.89;100.00;101444.56;5093162;28;20031;-62
2022/03/14 09:42:36;;;;;;;11.40;5.07;;;;;;;10.97;100.00;101444.31;5074793;28;20024;-62
2022/03/14 09:45:04;;;;;;;11.02;4.68;;;;;;;11.06;100.00;101452.75;5075112;28;20520;-62
2022/03/14 09:47:29;;;;;;;12.43;5.30;;;;;;;11.13;100.00;101456.88;5092762;28;20032;-62
2022/03/14 09:49:57;;;;;;;12.20;5.55;;;;;;;11.13;100.00;101461.28;5092799;28;20030;-62
2022/03/14 09:52:23;;;;;;;11.10;7.00;;;;;;;11.09;100.00;101467.53;5075003;28;20505;-62
2022/03/14 09:54:49;;;;;;;12.18;6.28;;;;;;;11.06;100.00;101471.16;5092793;28;20032;-62
2022/03/14 09:57:15;;;;;;;10.18;5.88;;;;;;;11.10;100.00;101467.50;5092604;28;20452;-62
2022/03/14 09:59:41;;;;;;;11.23;6.70;;;;;;;11.31;100.00;101475.53;5092370;28;20020;-62
2022/03/14 10:02:14;;;;;;;14.32;6.40;;;;;;;11.38;100.00;101492.84;5092659;28;20024;-62
2022/03/14 10:04:40;;;;;;;12.57;6.20;;;;;;;11.36;100.00;101489.38;5107296;28;20780;-62
2022/03/14 10:07:06;;;;;;;11.48;5.38;;;;;;;11.39;100.00;101500.66;5088158;28;20020;-62
2022/03/14 10:09:34;;;;;;;9.43;5.35;;;;;;;11.40;100.00;101501.53;5092620;28;20024;-62
2022/03/14 10:12:00;;;;;;;7.10;4.93;;;;;;;11.35;100.00;101503.47;5091597;28;20040;-62
2022/03/14 10:14:25;;;;;;;10.55;4.78;;;;;;;11.41;100.00;101513.78;5090898;28;20035;-62
2022/03/14 10:16:54;;;;;;;15.88;5.38;;;;;;;11.41;100.00;101517.28;5090363;28;20024;-61
2022/03/14 10:19:22;;;;;;;9.07;4.90;;;;;;;11.13;100.00;101519.13;5089525;28;20048;-62
2022/03/14 10:21:50;;;;;;;10.55;5.30;;;;;;;11.12;100.00;101517.41;5091542;28;20024;-62
2022/03/14 10:24:20;;;;;;;8.13;4.78;;;;;;;11.19;100.00;101530.31;5092322;28;20028;-62
2022/03/14 10:26:46;;;;;;;7.78;4.35;;;;;;;11.20;100.00;101536.44;5092572;28;20034;-61
2022/03/14 10:29:14;;;;;;;6.93;3.95;;;;;;;11.28;100.00;101535.28;5090736;28;20012;-62
2022/03/14 10:32:01;;;;;;;7.05;4.53;;;;;;;11.48;100.00;101531.94;5053039;28;20181;-62
2022/03/14 10:34:26;;;;;;;9.27;4.38;;;;;;;11.61;100.00;101537.59;5091933;28;20027;-62
2022/03/14 10:36:54;;;;;;;16.85;5.30;;;;;;;11.85;100.00;101534.13;5091492;28;20032;-62
2022/03/14 10:39:21;;;;;;;10.50;5.25;;;;;;;11.96;100.00;101545.13;5091523;28;20020;-62
2022/03/14 10:42:11;;;;;;;28.90;4.63;;;;;;;12.09;100.00;101546.38;5091301;28;20110;-62
2022/03/14 10:44:38;;;;;;;9.82;4.40;;;;;;;12.34;100.00;101541.00;5091855;28;20039;-62
2022/03/14 10:47:06;;;;;;;7.00;4.50;;;;;;;12.44;100.00;101538.84;5091672;28;20043;-63
2022/03/14 10:49:34;;;;;;;13.75;4.35;;;;;;;12.56;100.00;101535.75;5089453;28;20066;-61
2022/03/14 10:52:06;;;;;;;6.20;3.00;;;;;;;12.81;100.00;101533.81;5091627;28;20024;-62
2022/03/14 10:54:35;;;;;;;7.38;2.95;;;;;;;13.11;100.00;101539.66;5087463;28;20045;-62
2022/03/14 10:57:10;;;;;;;7.00;3.83;;;;;;;13.22;100.00;101543.53;5107412;28;20028;-62
2022/03/14 10:59:41;;;;;;;6.80;3.80;;;;;;;13.19;100.00;101548.09;5089392;28;20412;-62
2022/03/14 11:02:11;;;;;;;9.30;3.50;;;;;;;13.36;100.00;101539.44;5089847;28;20103;-63
2022/03/14 11:04:54;;;;;;;9.73;3.55;;;;;;;13.57;100.00;101549.94;5086114;28;20446;-63
2022/03/14 11:07:21;;;;;;;10.48;3.85;;;;;;;13.80;100.00;101554.19;5074134;28;20031;-63
2022/03/14 11:09:47;;;;;;;12.38;3.58;;;;;;;13.43;100.00;101546.16;5107297;28;20024;-62
2022/03/14 11:12:15;;;;;;;10.13;3.72;;;;;;;13.33;100.00;101548.34;5107939;28;20396;-63
2022/03/14 11:14:41;;;;;;;6.47;3.45;;;;;;;13.45;100.00;101536.41;5092118;28;20145;-63
2022/03/14 11:17:14;;;;;;;6.78;2.97;;;;;;;13.54;100.00;101560.63;5091786;28;20095;-63